Time;durP1;ratioP1;P1;durP2;ratioP2;P2;SDS_P1;SDS_P2;PMS_P1;PMS_P2;Temp;Humidity;BMP_temperature;BMP_pressure;BME280_temperature;BME280_humidity;BME280_pressure;Samples;Min_cycle;Max_cycle;Signal;HPM_P1;HPM_P2
2022/07/23 00:00:30;;;;;;;4.22;2.72;;;21.70;58.90;;;;;;4993662;28;20052;-74
2022/07/23 00:02:57;;;;;;;4.38;2.65;;;21.70;59.00;;;;;;4990901;28;20129;-74
2022/07/23 00:05:24;;;;;;;4.25;2.63;;;21.60;58.90;;;;;;4990980;28;20046;-74
2022/07/23 00:07:51;;;;;;;4.53;2.95;;;21.70;58.90;;;;;;4991123;28;20085;-74
2022/07/23 00:10:18;;;;;;;4.97;2.80;;;21.60;58.90;;;;;;4990927;28;20166;-74
2022/07/23 00:12:45;;;;;;;3.75;2.67;;;21.70;59.00;;;;;;4990822;28;20064;-74
2022/07/23 00:15:12;;;;;;;5.20;2.70;;;21.70;59.00;;;;;;4994801;28;20129;-74
2022/07/23 00:17:40;;;;;;;3.67;2.80;;;21.60;62.30;;;;;;4990976;28;20089;-74
2022/07/23 00:20:08;;;;;;;3.83;2.63;;;21.70;58.90;;;;;;4990794;28;20057;-74
2022/07/23 00:22:35;;;;;;;4.80;2.70;;;21.60;58.90;;;;;;4990803;28;20054;-74
2022/07/23 00:25:01;;;;;;;4.25;2.72;;;21.70;59.00;;;;;;4991973;28;20054;-74
2022/07/23 00:27:28;;;;;;;3.72;2.30;;;21.60;58.90;;;;;;4992099;28;20050;-74
2022/07/23 00:29:55;;;;;;;2.78;2.10;;;21.80;63.40;;;;;;4991758;28;20137;-74
2022/07/23 00:32:21;;;;;;;3.30;2.22;;;21.60;58.90;;;;;;5009832;28;20452;-74
2022/07/23 00:34:49;;;;;;;3.67;2.50;;;21.80;62.50;;;;;;5010091;28;20054;-74
2022/07/23 00:37:16;;;;;;;4.22;2.80;;;21.60;58.90;;;;;;5010342;28;20068;-74
2022/07/23 00:39:43;;;;;;;3.17;2.33;;;21.40;62.10;;;;;;5010347;28;20050;-74
2022/07/23 00:42:10;;;;;;;3.67;2.13;;;21.60;59.00;;;;;;5010350;28;20133;-74
2022/07/23 00:44:36;;;;;;;4.07;2.55;;;21.60;59.00;;;;;;5008881;28;20053;-74
2022/07/23 00:47:05;;;;;;;3.53;2.40;;;21.60;63.20;;;;;;5009769;28;20452;-74
2022/07/23 00:49:32;;;;;;;4.68;2.47;;;21.80;63.20;;;;;;5010058;28;20074;-74
2022/07/23 00:52:01;;;;;;;3.88;2.72;;;21.60;58.90;;;;;;5010266;28;20076;-74
2022/07/23 00:54:28;;;;;;;2.83;2.25;;;21.40;63.60;;;;;;5009713;28;20073;-74
2022/07/23 00:56:55;;;;;;;3.22;2.30;;;21.60;59.00;;;;;;5009930;28;20129;-74
2022/07/23 00:59:21;;;;;;;3.53;2.28;;;21.50;63.20;;;;;;5009414;28;20545;-74
2022/07/23 01:01:48;;;;;;;3.78;2.60;;;21.70;59.00;;;;;;5009875;28;20140;-74
2022/07/23 01:04:15;;;;;;;3.97;2.35;;;21.60;58.90;;;;;;5009926;28;20058;-74
2022/07/23 01:06:42;;;;;;;3.22;2.40;;;21.50;58.90;;;;;;5009801;28;20054;-74
2022/07/23 01:09:10;;;;;;;2.83;2.42;;;21.50;59.50;;;;;;5009989;28;20169;-74
2022/07/23 01:11:37;;;;;;;3.47;2.28;;;21.50;58.90;;;;;;5009971;28;20050;-74
2022/07/23 01:14:11;;;;;;;3.65;2.38;;;21.50;58.90;;;;;;5007947;28;20140;-74
2022/07/23 01:16:38;;;;;;;3.57;2.10;;;21.40;62.60;;;;;;5004350;28;20101;-74
2022/07/23 01:19:06;;;;;;;3.38;2.20;;;21.50;58.90;;;;;;4990484;28;20564;-74
2022/07/23 01:21:34;;;;;;;2.72;1.85;;;21.50;61.50;;;;;;4990102;28;20050;-74
2022/07/23 01:24:02;;;;;;;2.88;2.13;;;20.30;58.20;;;;;;4989874;28;20058;-74
2022/07/23 01:26:29;;;;;;;2.97;2.20;;;22.10;63.10;;;;;;4988707;28;20054;-74
2022/07/23 01:28:56;;;;;;;3.60;2.10;;;21.40;58.90;;;;;;4990574;28;20845;-74
2022/07/23 01:31:22;;;;;;;3.17;2.10;;;21.30;61.10;;;;;;5002502;28;20057;-74
2022/07/23 01:33:49;;;;;;;3.92;2.00;;;21.40;58.80;;;;;;5009520;28;20133;-74
2022/07/23 01:36:16;;;;;;;3.00;2.05;;;21.40;58.80;;;;;;5009659;28;20495;-74
2022/07/23 01:38:43;;;;;;;2.88;2.00;;;21.40;58.90;;;;;;5009716;28;20136;-73
2022/07/23 01:41:11;;;;;;;2.55;2.10;;;21.40;58.90;;;;;;5010693;28;20444;-73
2022/07/23 01:43:37;;;;;;;2.72;2.10;;;21.40;58.90;;;;;;5010351;28;20056;-73
2022/07/23 01:46:04;;;;;;;3.00;2.05;;;21.40;58.90;;;;;;5006646;28;20061;-73
2022/07/23 01:48:31;;;;;;;2.95;1.90;;;21.40;58.90;;;;;;4989623;28;20054;-73
2022/07/23 01:50:58;;;;;;;2.97;1.80;;;20.60;62.50;;;;;;4990221;28;20571;-73
2022/07/23 01:53:25;;;;;;;2.58;1.95;;;21.40;58.90;;;;;;4989882;28;20138;-73
2022/07/23 01:55:51;;;;;;;2.88;2.10;;;21.40;58.90;;;;;;4989801;28;20640;-73
2022/07/23 01:58:19;;;;;;;3.42;2.10;;;21.40;59.50;;;;;;4991740;28;20065;-73
2022/07/23 02:00:46;;;;;;;3.60;2.00;;;21.30;58.80;;;;;;5000235;28;20085;-73
2022/07/23 02:03:13;;;;;;;2.30;1.77;;;21.30;63.20;;;;;;5011837;28;20546;-73
2022/07/23 02:05:40;;;;;;;3.13;2.03;;;22.00;63.50;;;;;;5013084;28;20132;-73
2022/07/23 02:08:06;;;;;;;2.58;1.98;;;21.30;58.80;;;;;;5012908;28;20092;-73
2022/07/23 02:10:33;;;;;;;3.10;2.28;;;21.10;62.30;;;;;;5012770;28;20080;-73
2022/07/23 02:13:00;;;;;;;3.05;1.80;;;21.30;58.80;;;;;;5012412;28;20592;-73
2022/07/23 02:15:28;;;;;;;2.50;1.80;;;21.30;58.80;;;;;;5010994;28;20046;-73
2022/07/23 02:17:55;;;;;;;2.15;1.70;;;21.00;62.70;;;;;;4994235;28;20046;-73
2022/07/23 02:20:22;;;;;;;2.40;1.73;;;21.30;62.60;;;;;;4992845;28;20106;-73
2022/07/23 02:22:49;;;;;;;3.45;2.10;;;21.30;58.80;;;;;;4992941;28;20142;-73
2022/07/23 02:25:15;;;;;;;2.15;1.75;;;21.20;58.70;;;;;;4993030;28;20058;-73
2022/07/23 02:27:42;;;;;;;2.88;1.90;;;21.30;63.40;;;;;;4994458;28;20074;-73
2022/07/23 02:30:09;;;;;;;2.50;1.75;;;21.20;62.40;;;;;;4997754;28;20046;-73
2022/07/23 02:32:39;;;;;;;2.65;1.80;;;21.20;62.90;;;;;;4992532;28;20064;-74
2022/07/23 02:35:06;;;;;;;2.53;1.80;;;21.20;58.70;;;;;;4992654;28;20490;-73
2022/07/23 02:37:33;;;;;;;2.33;1.67;;;21.20;58.70;;;;;;4992763;28;20377;-73
2022/07/23 02:40:00;;;;;;;2.22;1.70;;;21.20;58.70;;;;;;4992723;28;20058;-73
2022/07/23 02:42:26;;;;;;;2.83;1.80;;;21.20;58.70;;;;;;4992295;28;20141;-73
2022/07/23 02:44:53;;;;;;;2.15;1.50;;;21.20;58.70;;;;;;4992637;28;20050;-73
2022/07/23 02:47:20;;;;;;;2.83;1.60;;;21.20;58.70;;;;;;5010096;28;20133;-73
2022/07/23 02:49:49;;;;;;;2.67;1.80;;;21.20;58.70;;;;;;5011768;28;20562;-73
2022/07/23 02:52:16;;;;;;;1.83;1.50;;;20.90;63.10;;;;;;5011974;28;20108;-73
2022/07/23 02:54:43;;;;;;;2.30;1.55;;;21.20;58.70;;;;;;5011549;28;20085;-73
2022/07/23 02:57:10;;;;;;;3.70;1.60;;;21.20;58.70;;;;;;5011872;28;20527;-73
2022/07/23 02:59:37;;;;;;;3.45;1.60;;;22.20;63.20;;;;;;5010977;28;20057;-73
2022/07/23 03:02:03;;;;;;;1.90;1.50;;;21.20;58.70;;;;;;4992212;28;20101;-73
2022/07/23 03:04:30;;;;;;;2.03;1.67;;;21.10;58.60;;;;;;4992115;28;20415;-73
2022/07/23 03:06:58;;;;;;;2.40;1.70;;;21.30;62.40;;;;;;4992453;28;20085;-73
2022/07/23 03:09:25;;;;;;;1.95;1.45;;;20.40;61.80;;;;;;4993554;28;20061;-73
2022/07/23 03:11:51;;;;;;;2.17;1.73;;;21.80;63.60;;;;;;4993305;28;20129;-73
2022/07/23 03:14:18;;;;;;;2.15;1.42;;;21.10;58.60;;;;;;4993416;28;20065;-73
2022/07/23 03:16:45;;;;;;;2.17;1.60;;;20.80;61.70;;;;;;5012336;28;20042;-73
2022/07/23 03:19:12;;;;;;;2.58;1.60;;;21.10;62.50;;;;;;5012753;28;20527;-73
2022/07/23 03:21:40;;;;;;;1.80;1.40;;;21.10;63.60;;;;;;5011319;28;20050;-74
2022/07/23 03:24:09;;;;;;;1.73;1.40;;;21.10;58.60;;;;;;5011463;28;20460;-73
2022/07/23 03:26:36;;;;;;;1.70;1.40;;;21.10;58.60;;;;;;5012189;28;20058;-73
2022/07/23 03:29:04;;;;;;;2.22;1.40;;;20.90;61.80;;;;;;5006658;28;20134;-73
2022/07/23 03:31:31;;;;;;;2.80;1.67;;;21.70;61.80;;;;;;4991748;28;20050;-73
2022/07/23 03:33:57;;;;;;;1.80;1.40;;;20.20;62.30;;;;;;4991783;28;20077;-73
2022/07/23 03:36:24;;;;;;;2.15;1.42;;;21.00;58.60;;;;;;4991419;28;20104;-73
2022/07/23 03:38:51;;;;;;;2.20;1.55;;;21.00;58.60;;;;;;4992825;28;20058;-73
2022/07/23 03:41:19;;;;;;;2.08;1.23;;;21.00;61.50;;;;;;4991727;28;20081;-73
2022/07/23 03:43:46;;;;;;;1.92;1.40;;;21.00;63.20;;;;;;4995566;28;20128;-73
2022/07/23 03:46:13;;;;;;;2.30;1.60;;;21.00;58.60;;;;;;5011074;28;20058;-73
2022/07/23 03:48:39;;;;;;;1.83;1.40;;;21.00;58.50;;;;;;5011111;28;20140;-73
2022/07/23 03:51:07;;;;;;;1.95;1.48;;;21.00;62.70;;;;;;5011237;28;20057;-73
2022/07/23 03:53:34;;;;;;;1.70;1.30;;;21.00;62.30;;;;;;5010745;28;20245;-73
2022/07/23 03:56:01;;;;;;;2.25;1.58;;;20.40;63.50;;;;;;5010968;28;20128;-73
2022/07/23 03:58:29;;;;;;;1.95;1.60;;;20.10;63.10;;;;;;5003739;28;20408;-73
2022/07/23 04:00:55;;;;;;;1.73;1.30;;;21.00;58.50;;;;;;4991387;28;20452;-73
2022/07/23 04:03:22;;;;;;;1.88;1.38;;;21.00;58.60;;;;;;4991110;28;20066;-73
2022/07/23 04:05:49;;;;;;;1.95;1.40;;;21.00;58.50;;;;;;4992103;28;20530;-74
2022/07/23 04:08:15;;;;;;;1.80;1.23;;;20.90;61.60;;;;;;4992861;28;20046;-74
2022/07/23 04:10:42;;;;;;;2.08;1.50;;;20.90;58.60;;;;;;4990913;28;20440;-73
2022/07/23 04:13:09;;;;;;;1.80;1.40;;;21.00;58.50;;;;;;4993702;28;20053;-73
2022/07/23 04:15:37;;;;;;;1.60;1.30;;;20.90;58.40;;;;;;5010534;28;20061;-73
2022/07/23 04:18:04;;;;;;;2.33;1.40;;;20.90;59.00;;;;;;5010348;28;20050;-73
2022/07/23 04:20:31;;;;;;;1.95;1.50;;;21.10;62.70;;;;;;5011050;28;20132;-73
2022/07/23 04:22:57;;;;;;;1.48;1.30;;;20.90;58.40;;;;;;5010454;28;20157;-73
2022/07/23 04:25:24;;;;;;;1.50;1.30;;;20.20;62.10;;;;;;5010461;28;20116;-73
2022/07/23 04:27:51;;;;;;;1.73;1.40;;;20.90;58.40;;;;;;5006129;28;20060;-73
2022/07/23 04:30:18;;;;;;;1.45;1.20;;;20.90;58.40;;;;;;5011443;28;20053;-73
2022/07/23 04:32:46;;;;;;;2.13;1.35;;;20.90;58.40;;;;;;5010504;28;20054;-73
2022/07/23 04:35:13;;;;;;;2.05;1.30;;;20.80;61.90;;;;;;5011719;28;20134;-73
2022/07/23 04:37:39;;;;;;;1.60;1.20;;;21.70;63.00;;;;;;5010361;28;20054;-73
2022/07/23 04:40:07;;;;;;;1.88;1.20;;;20.90;58.30;;;;;;5010194;28;20137;-73
2022/07/23 04:42:33;;;;;;;1.60;1.17;;;21.20;63.00;;;;;;5008170;28;20530;-73
2022/07/23 04:45:00;;;;;;;1.40;1.20;;;20.50;63.00;;;;;;4990684;28;20078;-73
2022/07/23 04:47:27;;;;;;;1.40;1.30;;;21.60;63.90;;;;;;4991739;28;20403;-73
2022/07/23 04:49:56;;;;;;;1.30;1.10;;;20.70;62.40;;;;;;4990693;28;20050;-73
2022/07/23 04:52:23;;;;;;;1.20;1.10;;;20.90;58.30;;;;;;4990520;28;20574;-74
2022/07/23 04:54:49;;;;;;;1.40;1.10;;;20.90;61.80;;;;;;4989194;28;20060;-74
2022/07/23 04:57:16;;;;;;;2.00;1.40;;;20.80;58.20;;;;;;4994068;28;20049;-73
2022/07/23 04:59:43;;;;;;;1.33;1.10;;;20.90;58.30;;;;;;4992184;28;20042;-74
2022/07/23 05:02:10;;;;;;;1.30;1.20;;;20.90;58.30;;;;;;4990379;28;20078;-73
2022/07/23 05:04:36;;;;;;;1.50;1.20;;;20.50;62.10;;;;;;4989988;28;20058;-73
2022/07/23 05:07:04;;;;;;;1.63;1.23;;;20.90;62.80;;;;;;4990157;28;20042;-73
2022/07/23 05:09:31;;;;;;;1.38;1.20;;;20.90;58.30;;;;;;4990054;28;20517;-73
2022/07/23 05:11:58;;;;;;;1.35;1.17;;;20.90;58.30;;;;;;4991251;28;20129;-73
2022/07/23 05:14:25;;;;;;;1.85;1.25;;;20.90;58.20;;;;;;4991166;28;20066;-73
2022/07/23 05:16:52;;;;;;;1.38;1.27;;;20.90;58.20;;;;;;4990282;28;20061;-73
2022/07/23 05:19:18;;;;;;;1.33;1.20;;;20.60;62.10;;;;;;4990052;28;20113;-74
2022/07/23 05:21:45;;;;;;;1.40;1.20;;;20.90;58.20;;;;;;4991117;28;20129;-73
2022/07/23 05:24:13;;;;;;;1.63;1.10;;;20.90;58.20;;;;;;4989537;28;20058;-73
2022/07/23 05:26:40;;;;;;;1.73;1.20;;;20.90;58.20;;;;;;4990008;28;20058;-73
2022/07/23 05:29:06;;;;;;;2.05;1.25;;;20.90;62.00;;;;;;4993247;28;20045;-73
2022/07/23 05:31:33;;;;;;;1.60;1.20;;;21.40;61.40;;;;;;4990922;28;20049;-73
2022/07/23 05:34:00;;;;;;;1.27;1.10;;;20.90;58.20;;;;;;4994411;28;20381;-73
2022/07/23 05:36:27;;;;;;;1.88;1.13;;;20.90;58.20;;;;;;4993734;28;20058;-73
2022/07/23 05:38:53;;;;;;;1.88;1.30;;;20.90;58.10;;;;;;4993833;28;20081;-73
2022/07/23 05:41:22;;;;;;;1.20;1.10;;;21.00;61.20;;;;;;4994696;28;20149;-73
2022/07/23 05:43:48;;;;;;;1.33;1.00;;;20.20;62.80;;;;;;4994682;28;20064;-73
2022/07/23 05:46:15;;;;;;;1.83;1.30;;;20.90;58.20;;;;;;4994198;28;20149;-73
2022/07/23 05:48:42;;;;;;;2.40;1.15;;;20.90;58.20;;;;;;4994763;28;20366;-73
2022/07/23 05:51:09;;;;;;;1.20;1.10;;;20.90;58.10;;;;;;4993376;28;20058;-73
2022/07/23 05:53:36;;;;;;;1.30;1.08;;;20.90;62.80;;;;;;4993023;28;20423;-73
2022/07/23 05:56:02;;;;;;;1.52;1.13;;;20.90;58.10;;;;;;4993383;28;20061;-73
2022/07/23 05:58:31;;;;;;;1.55;1.10;;;21.00;58.20;;;;;;4996298;28;20129;-73
2022/07/23 06:00:57;;;;;;;2.00;1.27;;;21.00;58.10;;;;;;4992909;28;20121;-73
2022/07/23 06:03:24;;;;;;;1.20;1.00;;;21.00;63.10;;;;;;4992950;28;20060;-73
2022/07/23 06:05:51;;;;;;;1.10;1.00;;;21.20;62.00;;;;;;4993292;28;20407;-73
2022/07/23 06:08:18;;;;;;;1.30;1.10;;;21.00;58.10;;;;;;4992971;28;20057;-73
2022/07/23 06:10:44;;;;;;;1.50;1.10;;;21.10;58.10;;;;;;4992642;28;20057;-73
2022/07/23 06:13:11;;;;;;;1.35;1.13;;;21.10;58.10;;;;;;4993014;28;20554;-73
2022/07/23 06:15:39;;;;;;;1.15;1.05;;;20.00;61.70;;;;;;4993406;28;20077;-73
2022/07/23 06:18:06;;;;;;;1.40;1.10;;;21.30;61.90;;;;;;4992525;28;20046;-73
2022/07/23 06:20:33;;;;;;;1.13;1.00;;;21.10;58.10;;;;;;4992411;28;20427;-73
2022/07/23 06:22:59;;;;;;;1.13;1.00;;;21.10;58.10;;;;;;5008893;28;20144;-73
2022/07/23 06:25:26;;;;;;;1.42;1.05;;;21.30;62.20;;;;;;5009137;28;20060;-73
2022/07/23 06:27:53;;;;;;;1.85;1.10;;;21.10;58.00;;;;;;4993045;28;20074;-73
2022/07/23 06:30:20;;;;;;;1.20;1.10;;;21.20;58.00;;;;;;4992814;28;20050;-73
2022/07/23 06:32:48;;;;;;;1.70;1.00;;;21.20;62.30;;;;;;4992232;28;20053;-73
2022/07/23 06:35:15;;;;;;;1.10;1.00;;;19.90;62.50;;;;;;4992590;28;20136;-73
2022/07/23 06:37:42;;;;;;;1.02;0.93;;;21.10;62.60;;;;;;4992348;28;20053;-73
2022/07/23 06:40:10;;;;;;;1.45;1.23;;;22.30;63.10;;;;;;4992210;28;20050;-73
2022/07/23 06:42:38;;;;;;;1.25;1.00;;;21.30;58.00;;;;;;5008797;28;20050;-73
2022/07/23 06:45:06;;;;;;;1.40;1.17;;;21.30;58.00;;;;;;4987618;28;20141;-73
2022/07/23 06:47:33;;;;;;;0.80;0.80;;;21.20;62.10;;;;;;4992820;28;20054;-73
2022/07/23 06:50:01;;;;;;;1.20;1.10;;;21.30;57.90;;;;;;4993945;28;20069;-73
2022/07/23 06:52:28;;;;;;;1.35;1.00;;;21.30;57.90;;;;;;4992422;28;20514;-73
2022/07/23 06:54:54;;;;;;;1.60;1.00;;;21.40;58.00;;;;;;4992092;28;20050;-73
2022/07/23 06:57:21;;;;;;;1.65;1.00;;;21.60;62.00;;;;;;4992590;28;20078;-73
2022/07/23 06:59:48;;;;;;;1.42;1.00;;;21.40;57.80;;;;;;4989429;28;20568;-73
2022/07/23 07:02:14;;;;;;;1.15;1.02;;;21.50;57.80;;;;;;4993194;28;20081;-73
2022/07/23 07:04:41;;;;;;;1.27;0.93;;;21.70;61.60;;;;;;4998195;28;20067;-73
2022/07/23 07:07:09;;;;;;;1.48;1.02;;;21.50;57.80;;;;;;4991910;28;20129;-73
2022/07/23 07:09:36;;;;;;;1.85;1.30;;;21.50;62.60;;;;;;4991443;28;20054;-73
2022/07/23 07:12:03;;;;;;;1.60;1.20;;;21.50;57.90;;;;;;4991457;28;20141;-74
2022/07/23 07:14:30;;;;;;;1.20;1.00;;;21.60;62.00;;;;;;4991981;28;20146;-73
2022/07/23 07:16:56;;;;;;;2.38;1.08;;;21.50;57.90;;;;;;4990865;28;20058;-73
2022/07/23 07:19:23;;;;;;;1.35;1.10;;;21.60;57.90;;;;;;4972238;28;20420;-73
2022/07/23 07:21:50;;;;;;;1.77;1.10;;;21.40;62.10;;;;;;4972447;28;20053;-73
2022/07/23 07:24:18;;;;;;;1.83;1.13;;;21.50;57.80;;;;;;4972449;28;20506;-73
2022/07/23 07:26:45;;;;;;;1.80;1.10;;;21.60;57.80;;;;;;4972565;28;20058;-73
2022/07/23 07:29:11;;;;;;;1.85;1.10;;;21.60;57.70;;;;;;4973354;28;20097;-73
2022/07/23 07:31:38;;;;;;;1.50;1.20;;;21.70;61.80;;;;;;4992047;28;20077;-73
2022/07/23 07:34:05;;;;;;;1.17;1.05;;;21.70;57.70;;;;;;4990805;28;20050;-73
2022/07/23 07:36:32;;;;;;;1.75;1.10;;;21.60;57.50;;;;;;4991063;28;20056;-73
2022/07/23 07:38:59;;;;;;;1.80;1.10;;;21.80;57.50;;;;;;4990929;28;20057;-73
2022/07/23 07:41:27;;;;;;;1.70;1.10;;;21.90;60.10;;;;;;4992640;28;20480;-73
2022/07/23 07:43:54;;;;;;;1.50;0.98;;;21.90;57.30;;;;;;4991624;28;20153;-73
2022/07/23 07:46:23;;;;;;;2.10;1.00;;;21.80;61.40;;;;;;4991502;28;20133;-73
2022/07/23 07:48:50;;;;;;;4.57;0.98;;;21.90;57.80;;;;;;4991204;28;20136;-74
2022/07/23 07:51:17;;;;;;;4.63;1.13;;;21.80;61.80;;;;;;4991558;28;20134;-74
2022/07/23 07:53:44;;;;;;;2.47;1.10;;;22.10;57.40;;;;;;4989769;28;20480;-73
2022/07/23 07:56:10;;;;;;;4.80;1.00;;;21.90;57.30;;;;;;4990656;28;20410;-74
2022/07/23 07:58:38;;;;;;;2.70;1.10;;;21.80;61.20;;;;;;4990856;28;20057;-74
2022/07/23 08:01:05;;;;;;;7.00;1.60;;;21.00;60.70;;;;;;4990054;28;20137;-73
2022/07/23 08:03:32;;;;;;;2.35;1.00;;;22.00;57.40;;;;;;4990613;28;20058;-73
2022/07/23 08:05:59;;;;;;;2.90;1.10;;;22.00;57.40;;;;;;4989941;28;20085;-74
2022/07/23 08:08:26;;;;;;;2.45;1.00;;;22.00;57.30;;;;;;4992084;28;20057;-73
2022/07/23 08:10:53;;;;;;;1.10;1.00;;;22.10;61.60;;;;;;4991033;28;20054;-73
2022/07/23 08:13:19;;;;;;;1.60;0.95;;;22.00;57.20;;;;;;4991039;28;20058;-73
2022/07/23 08:15:47;;;;;;;1.10;0.90;;;22.10;57.20;;;;;;4990561;28;20089;-73
2022/07/23 08:18:14;;;;;;;1.10;0.90;;;22.10;57.10;;;;;;4991137;28;20112;-73
2022/07/23 08:20:41;;;;;;;4.25;1.10;;;21.00;61.60;;;;;;4991016;28;20168;-73
2022/07/23 08:23:08;;;;;;;4.47;1.10;;;22.30;60.80;;;;;;5000903;28;20388;-73
2022/07/23 08:25:36;;;;;;;1.20;0.85;;;22.30;57.00;;;;;;4990139;28;20162;-73
2022/07/23 08:28:04;;;;;;;2.85;0.90;;;22.30;61.20;;;;;;4997115;28;20050;-73
2022/07/23 08:30:31;;;;;;;2.15;1.02;;;22.40;56.90;;;;;;5004974;28;20145;-73
2022/07/23 08:33:00;;;;;;;0.98;0.90;;;22.40;56.80;;;;;;4993769;28;20484;-72
2022/07/23 08:35:28;;;;;;;3.33;1.00;;;22.50;56.80;;;;;;4980714;28;20519;-73
2022/07/23 08:37:55;;;;;;;3.40;1.10;;;22.60;56.70;;;;;;4995697;28;20050;-72
2022/07/23 08:40:21;;;;;;;1.63;0.80;;;22.50;56.60;;;;;;4989188;28;20506;-73
2022/07/23 08:42:49;;;;;;;1.38;0.90;;;22.60;61.70;;;;;;4990438;28;20502;-73
2022/07/23 08:45:17;;;;;;;0.90;0.80;;;22.70;56.50;;;;;;4989785;28;20104;-73
2022/07/23 08:47:46;;;;;;;0.90;0.80;;;22.70;61.40;;;;;;4988968;28;20065;-73
2022/07/23 08:50:15;;;;;;;1.40;0.85;;;22.80;56.30;;;;;;5000696;28;20057;-73
2022/07/23 08:52:41;;;;;;;1.92;1.23;;;22.80;56.10;;;;;;5008186;28;20582;-73
2022/07/23 08:55:08;;;;;;;1.40;0.80;;;22.90;56.10;;;;;;4990268;28;20050;-74
2022/07/23 08:57:35;;;;;;;0.80;0.80;;;23.00;56.10;;;;;;4991698;28;20059;-74
2022/07/23 09:00:02;;;;;;;1.50;0.90;;;23.30;61.20;;;;;;4991732;28;20125;-73
2022/07/23 09:02:29;;;;;;;1.73;1.00;;;22.90;60.60;;;;;;4995848;28;20065;-74
2022/07/23 09:04:56;;;;;;;1.73;1.05;;;23.10;55.80;;;;;;4979438;28;20065;-74
2022/07/23 09:07:24;;;;;;;1.25;0.90;;;23.20;55.70;;;;;;4994984;28;20084;-74
2022/07/23 09:10:05;;;;;;;1.92;0.95;;;23.30;55.60;;;;;;4995431;28;20133;-74
2022/07/23 09:12:32;;;;;;;0.68;0.65;;;23.30;55.60;;;;;;4979746;28;20066;-74
2022/07/23 09:14:59;;;;;;;0.90;0.80;;;23.50;55.60;;;;;;4997265;28;20054;-74
2022/07/23 09:17:25;;;;;;;1.13;0.90;;;23.30;60.60;;;;;;4993698;28;20062;-74
2022/07/23 09:19:52;;;;;;;0.77;0.77;;;23.40;55.40;;;;;;4996148;28;20046;-74
2022/07/23 09:22:24;;;;;;;0.70;0.70;;;23.50;55.40;;;;;;4996828;28;20061;-73
2022/07/23 09:25:08;;;;;;;0.80;0.80;;;23.50;55.40;;;;;;5014493;28;20050;-76
2022/07/23 09:28:02;;;;;;;0.80;0.70;;;23.50;55.50;;;;;;5013421;28;20053;-74
2022/07/23 09:30:30;;;;;;;1.13;0.80;;;23.50;60.20;;;;;;4974455;28;20054;-74
2022/07/23 09:33:07;;;;;;;1.30;0.70;;;23.40;55.20;;;;;;5008968;28;20061;-74
2022/07/23 09:35:47;;;;;;;0.75;0.75;;;24.60;60.60;;;;;;4993723;28;20626;-74
2022/07/23 09:38:16;;;;;;;1.58;0.80;;;23.40;55.10;;;;;;5010318;28;20610;-74
2022/07/23 09:40:43;;;;;;;1.23;0.70;;;23.30;55.00;;;;;;5009639;28;20042;-74
2022/07/23 09:43:09;;;;;;;0.68;0.60;;;23.30;55.10;;;;;;5009293;28;20058;-73
2022/07/23 09:45:39;;;;;;;2.72;0.80;;;24.50;60.30;;;;;;4994176;28;20062;-73
2022/07/23 09:48:12;;;;;;;1.13;0.90;;;23.50;55.20;;;;;;4979616;28;20054;-73
2022/07/23 09:50:39;;;;;;;2.58;0.70;;;23.30;55.10;;;;;;5012833;28;20061;-78
2022/07/23 09:53:06;;;;;;;0.70;0.70;;;23.50;55.20;;;;;;5012679;28;20050;-74
2022/07/23 09:55:36;;;;;;;2.08;1.13;;;23.30;55.10;;;;;;4994131;28;20393;-74
2022/07/23 09:58:03;;;;;;;1.75;1.25;;;23.30;55.00;;;;;;4993552;28;20399;-74
2022/07/23 10:00:30;;;;;;;1.05;0.95;;;23.50;55.20;;;;;;4992458;28;20062;-73
2022/07/23 10:02:58;;;;;;;0.70;0.70;;;23.30;55.10;;;;;;4997626;28;20056;-74
2022/07/23 10:05:27;;;;;;;1.23;0.77;;;24.50;59.40;;;;;;5011975;28;20470;-74
2022/07/23 10:07:54;;;;;;;0.75;0.70;;;23.30;55.10;;;;;;5011083;28;20507;-74
2022/07/23 10:10:21;;;;;;;1.50;0.80;;;23.20;59.60;;;;;;4994480;28;20081;-74
2022/07/23 10:13:02;;;;;;;0.70;0.70;;;23.30;55.20;;;;;;4998788;28;20092;-75
2022/07/23 10:15:29;;;;;;;1.02;0.60;;;23.20;59.10;;;;;;5006951;28;20077;-74
2022/07/23 10:17:55;;;;;;;1.42;0.65;;;23.30;55.20;;;;;;5010352;28;20513;-74
2022/07/23 10:20:22;;;;;;;1.20;0.80;;;23.40;55.30;;;;;;4995003;28;20133;-74
2022/07/23 10:23:05;;;;;;;1.80;0.70;;;24.20;59.40;;;;;;4994230;28;20170;-74
2022/07/23 10:25:35;;;;;;;2.53;0.90;;;23.30;59.10;;;;;;4990489;28;20137;-73
2022/07/23 10:28:12;;;;;;;1.75;0.90;;;23.30;55.40;;;;;;4988835;28;20081;-73
2022/07/23 10:30:43;;;;;;;1.98;1.00;;;22.30;59.40;;;;;;4992146;28;20046;-73
2022/07/23 10:33:21;;;;;;;1.25;0.85;;;23.20;55.20;;;;;;4989433;28;20054;-73
2022/07/23 10:35:51;;;;;;;0.73;0.73;;;22.30;59.20;;;;;;4998807;28;20054;-73
2022/07/23 10:38:21;;;;;;;2.50;0.80;;;23.20;55.30;;;;;;4994385;28;20058;-73
2022/07/23 10:40:55;;;;;;;0.80;0.60;;;23.20;60.40;;;;;;4992486;28;20050;-73
2022/07/23 10:43:23;;;;;;;1.08;0.70;;;23.20;55.00;;;;;;4992622;28;20535;-73
2022/07/23 10:45:50;;;;;;;0.93;0.93;;;23.20;55.40;;;;;;4991479;28;20150;-73
2022/07/23 10:48:18;;;;;;;2.17;0.90;;;23.30;55.40;;;;;;4992408;28;20137;-73
2022/07/23 10:50:45;;;;;;;2.15;0.70;;;23.30;55.40;;;;;;4992225;28;20125;-73
2022/07/23 10:53:17;;;;;;;3.00;0.82;;;23.30;55.30;;;;;;4992040;28;20046;-73
2022/07/23 10:55:51;;;;;;;0.80;0.70;;;23.30;55.30;;;;;;4990274;28;20479;-73
2022/07/23 10:58:24;;;;;;;1.27;0.77;;;23.40;55.40;;;;;;4991633;28;20133;-73
2022/07/23 11:00:51;;;;;;;1.23;0.80;;;23.30;55.30;;;;;;4991814;28;20046;-73
2022/07/23 11:03:36;;;;;;;1.35;0.93;;;23.30;58.90;;;;;;4991097;28;20050;-73
2022/07/23 11:06:03;;;;;;;;;;;23.40;55.40;;;;;;4973391;28;20697;-73
2022/07/23 11:08:30;;;;;;;0.90;0.73;;;23.50;55.60;;;;;;4972885;28;20349;-77
2022/07/23 11:11:08;;;;;;;2.15;0.80;;;23.10;59.50;;;;;;4972200;28;20054;-77
2022/07/23 11:13:47;;;;;;;1.17;0.70;;;23.50;55.50;;;;;;4971940;28;20062;-78
2022/07/23 11:16:24;;;;;;;0.70;0.70;;;23.40;55.40;;;;;;4990816;28;20145;-77
2022/07/23 11:19:06;;;;;;;1.50;0.80;;;23.30;55.40;;;;;;4992272;28;20054;-77
2022/07/23 11:21:43;;;;;;;1.35;0.73;;;23.30;55.40;;;;;;4992176;28;20046;-77
2022/07/23 11:24:11;;;;;;;0.90;0.80;;;23.40;55.50;;;;;;4991329;28;20121;-78
2022/07/23 11:26:45;;;;;;;1.10;0.80;;;23.30;55.40;;;;;;4993250;28;20418;-78
2022/07/23 11:29:42;;;;;;;1.33;0.80;;;23.40;57.60;;;;;;4995202;28;20050;-77
2022/07/23 11:32:18;;;;;;;0.70;0.70;;;23.20;59.80;;;;;;4992234;28;20054;-79
2022/07/23 11:34:46;;;;;;;0.82;0.70;;;23.20;59.30;;;;;;4991624;28;20556;-73
2022/07/23 11:37:27;;;;;;;0.85;0.68;;;23.40;59.50;;;;;;4991879;28;20108;-73
2022/07/23 11:39:55;;;;;;;0.60;0.60;;;23.30;55.50;;;;;;4991519;28;20677;-73
2022/07/23 11:42:23;;;;;;;0.63;0.63;;;23.40;60.10;;;;;;4991598;28;20054;-73
2022/07/23 11:44:51;;;;;;;1.10;0.52;;;23.20;59.40;;;;;;4992687;28;20488;-73
2022/07/23 11:47:22;;;;;;;2.88;0.95;;;23.30;59.50;;;;;;4991221;28;20050;-73
2022/07/23 11:49:53;;;;;;;0.70;0.60;;;23.30;55.50;;;;;;4973177;28;20057;-73
2022/07/23 11:52:19;;;;;;;2.15;0.70;;;23.30;55.50;;;;;;4971746;28;20055;-73
2022/07/23 11:54:48;;;;;;;0.95;0.60;;;23.30;55.60;;;;;;4972066;28;20135;-73
2022/07/23 11:57:15;;;;;;;1.20;0.80;;;23.30;55.60;;;;;;4971768;28;20488;-73
2022/07/23 11:59:41;;;;;;;2.33;0.70;;;24.10;59.70;;;;;;5008421;28;20138;-73
2022/07/23 12:02:10;;;;;;;0.93;0.60;;;23.30;55.70;;;;;;5011689;28;20054;-73
2022/07/23 12:04:40;;;;;;;0.88;0.80;;;23.30;55.70;;;;;;5010593;28;20068;-73
2022/07/23 12:07:26;;;;;;;1.45;0.90;;;23.30;55.70;;;;;;5010917;28;20136;-73
2022/07/23 12:09:53;;;;;;;0.80;0.80;;;23.30;55.70;;;;;;5010984;28;20129;-73
2022/07/23 12:12:19;;;;;;;2.05;0.60;;;23.30;55.80;;;;;;5005556;28;20050;-73
2022/07/23 12:14:51;;;;;;;0.85;0.80;;;23.10;59.90;;;;;;4991778;28;20583;-73
2022/07/23 12:17:19;;;;;;;1.35;0.73;;;23.10;60.30;;;;;;4991014;28;20058;-73
2022/07/23 12:19:45;;;;;;;1.25;0.70;;;23.20;55.80;;;;;;4990801;28;20125;-73
2022/07/23 12:22:14;;;;;;;1.33;0.80;;;23.30;59.20;;;;;;4990855;28;20133;-73
2022/07/23 12:24:59;;;;;;;0.75;0.75;;;22.90;59.80;;;;;;4989730;28;20066;-73
2022/07/23 12:27:26;;;;;;;0.70;0.70;;;23.60;59.80;;;;;;5002400;28;20060;-73
2022/07/23 12:29:53;;;;;;;0.93;0.70;;;23.20;55.90;;;;;;5010596;28;20196;-72
2022/07/23 12:32:22;;;;;;;0.70;0.70;;;23.30;56.00;;;;;;5010096;28;20053;-73
2022/07/23 12:34:50;;;;;;;1.05;0.75;;;23.20;55.90;;;;;;5008600;28;20161;-73
2022/07/23 12:37:30;;;;;;;0.70;0.70;;;23.30;61.00;;;;;;5010154;28;20069;-73
2022/07/23 12:39:56;;;;;;;0.95;0.70;;;23.20;59.80;;;;;;5010333;28;20045;-73
2022/07/23 12:42:24;;;;;;;1.33;1.00;;;23.20;56.00;;;;;;4991475;28;20137;-72
2022/07/23 12:45:11;;;;;;;0.77;0.77;;;23.20;56.00;;;;;;4990227;28;20054;-73
2022/07/23 12:48:00;;;;;;;1.08;0.90;;;23.20;55.90;;;;;;4990033;28;20306;-73
2022/07/23 12:50:38;;;;;;;1.00;0.85;;;23.30;60.10;;;;;;4990647;28;20453;-73
2022/07/23 12:53:06;;;;;;;0.70;0.70;;;23.20;59.90;;;;;;4990268;28;20133;-73